sensor_id;sensor_type;location;lat;lon;timestamp;P1;durP1;ratioP1;P2;durP2;ratioP2
49758;SDS011;70329;45.524;10.194;2023-08-24T00:01:53;24.40;;;12.82;;
49758;SDS011;70329;45.524;10.194;2023-08-24T00:04:18;23.20;;;12.15;;
49758;SDS011;70329;45.524;10.194;2023-08-24T00:06:44;22.42;;;12.15;;
49758;SDS011;70329;45.524;10.194;2023-08-24T00:09:09;21.05;;;12.43;;
49758;SDS011;70329;45.524;10.194;2023-08-24T00:11:34;19.45;;;12.48;;
49758;SDS011;70329;45.524;10.194;2023-08-24T00:14:00;23.40;;;12.25;;
49758;SDS011;70329;45.524;10.194;2023-08-24T00:16:25;20.30;;;12.95;;
49758;SDS011;70329;45.524;10.194;2023-08-24T00:18:51;22.60;;;12.20;;
49758;SDS011;70329;45.524;10.194;2023-08-24T00:21:16;21.55;;;12.55;;
49758;SDS011;70329;45.524;10.194;2023-08-24T00:23:48;21.10;;;12.85;;
49758;SDS011;70329;45.524;10.194;2023-08-24T00:26:14;20.75;;;13.13;;
49758;SDS011;70329;45.524;10.194;2023-08-24T00:28:42;18.08;;;12.55;;
49758;SDS011;70329;45.524;10.194;2023-08-24T00:31:07;22.15;;;12.85;;
49758;SDS011;70329;45.524;10.194;2023-08-24T00:33:33;23.33;;;13.15;;
49758;SDS011;70329;45.524;10.194;2023-08-24T00:36:01;19.35;;;13.35;;
49758;SDS011;70329;45.524;10.194;2023-08-24T00:38:27;24.25;;;14.15;;
49758;SDS011;70329;45.524;10.194;2023-08-24T00:40:53;24.42;;;13.10;;
49758;SDS011;70329;45.524;10.194;2023-08-24T00:43:19;18.20;;;13.05;;
49758;SDS011;70329;45.524;10.194;2023-08-24T00:45:49;22.45;;;13.35;;
49758;SDS011;70329;45.524;10.194;2023-08-24T00:48:16;21.90;;;13.15;;
49758;SDS011;70329;45.524;10.194;2023-08-24T00:50:42;20.60;;;13.48;;
49758;SDS011;70329;45.524;10.194;2023-08-24T00:53:08;21.50;;;12.88;;
49758;SDS011;70329;45.524;10.194;2023-08-24T00:55:33;27.20;;;13.55;;
49758;SDS011;70329;45.524;10.194;2023-08-24T00:57:59;20.00;;;12.68;;
49758;SDS011;70329;45.524;10.194;2023-08-24T01:00:24;21.75;;;13.57;;
49758;SDS011;70329;45.524;10.194;2023-08-24T01:02:50;21.48;;;13.05;;
49758;SDS011;70329;45.524;10.194;2023-08-24T01:05:15;24.42;;;12.23;;
49758;SDS011;70329;45.524;10.194;2023-08-24T01:07:41;26.08;;;13.23;;
49758;SDS011;70329;45.524;10.194;2023-08-24T01:10:06;20.45;;;13.15;;
49758;SDS011;70329;45.524;10.194;2023-08-24T01:18:20;19.67;;;13.10;;
49758;SDS011;70329;45.524;10.194;2023-08-24T01:20:51;21.80;;;12.80;;
49758;SDS011;70329;45.524;10.194;2023-08-24T01:28:16;21.55;;;12.55;;
49758;SDS011;70329;45.524;10.194;2023-08-24T01:30:43;19.58;;;12.82;;
49758;SDS011;70329;45.524;10.194;2023-08-24T01:33:09;19.60;;;13.30;;
49758;SDS011;70329;45.524;10.194;2023-08-24T01:35:37;21.17;;;13.13;;
49758;SDS011;70329;45.524;10.194;2023-08-24T01:38:03;24.33;;;13.00;;
49758;SDS011;70329;45.524;10.194;2023-08-24T01:40:36;16.30;;;11.70;;
49758;SDS011;70329;45.524;10.194;2023-08-24T01:43:10;19.02;;;12.43;;
49758;SDS011;70329;45.524;10.194;2023-08-24T01:45:39;16.00;;;12.90;;
49758;SDS011;70329;45.524;10.194;2023-08-24T01:48:09;20.73;;;12.77;;
49758;SDS011;70329;45.524;10.194;2023-08-24T01:50:35;19.95;;;12.15;;
49758;SDS011;70329;45.524;10.194;2023-08-24T01:53:01;20.75;;;13.23;;
49758;SDS011;70329;45.524;10.194;2023-08-24T01:55:27;21.60;;;12.93;;
49758;SDS011;70329;45.524;10.194;2023-08-24T01:57:52;20.77;;;12.73;;
49758;SDS011;70329;45.524;10.194;2023-08-24T02:00:20;19.05;;;13.38;;
49758;SDS011;70329;45.524;10.194;2023-08-24T02:02:45;20.73;;;13.10;;
49758;SDS011;70329;45.524;10.194;2023-08-24T02:05:10;19.17;;;12.68;;
49758;SDS011;70329;45.524;10.194;2023-08-24T02:07:36;21.05;;;12.80;;
49758;SDS011;70329;45.524;10.194;2023-08-24T02:10:03;21.08;;;12.70;;
49758;SDS011;70329;45.524;10.194;2023-08-24T02:12:29;19.27;;;13.35;;
49758;SDS011;70329;45.524;10.194;2023-08-24T02:14:54;21.77;;;13.65;;
49758;SDS011;70329;45.524;10.194;2023-08-24T02:17:19;18.42;;;12.50;;
49758;SDS011;70329;45.524;10.194;2023-08-24T02:19:45;19.00;;;12.38;;
49758;SDS011;70329;45.524;10.194;2023-08-24T02:22:10;22.20;;;13.18;;
49758;SDS011;70329;45.524;10.194;2023-08-24T02:24:35;18.38;;;12.35;;
49758;SDS011;70329;45.524;10.194;2023-08-24T02:27:01;16.67;;;12.40;;
49758;SDS011;70329;45.524;10.194;2023-08-24T02:29:26;15.80;;;12.25;;
49758;SDS011;70329;45.524;10.194;2023-08-24T02:31:52;19.88;;;12.45;;
49758;SDS011;70329;45.524;10.194;2023-08-24T02:34:18;18.27;;;12.80;;
49758;SDS011;70329;45.524;10.194;2023-08-24T02:36:43;23.52;;;12.75;;
49758;SDS011;70329;45.524;10.194;2023-08-24T02:39:09;19.13;;;12.65;;
49758;SDS011;70329;45.524;10.194;2023-08-24T02:41:35;19.88;;;13.02;;
49758;SDS011;70329;45.524;10.194;2023-08-24T02:44:01;21.45;;;13.38;;
49758;SDS011;70329;45.524;10.194;2023-08-24T02:46:26;16.75;;;12.57;;
49758;SDS011;70329;45.524;10.194;2023-08-24T02:48:52;22.02;;;12.35;;
49758;SDS011;70329;45.524;10.194;2023-08-24T02:51:17;20.35;;;12.43;;
49758;SDS011;70329;45.524;10.194;2023-08-24T02:53:43;19.20;;;12.15;;
49758;SDS011;70329;45.524;10.194;2023-08-24T02:56:08;20.27;;;12.82;;
49758;SDS011;70329;45.524;10.194;2023-08-24T02:58:34;17.20;;;12.00;;
49758;SDS011;70329;45.524;10.194;2023-08-24T03:00:59;16.02;;;11.65;;
49758;SDS011;70329;45.524;10.194;2023-08-24T03:03:30;17.38;;;12.00;;
49758;SDS011;70329;45.524;10.194;2023-08-24T03:06:05;23.52;;;12.52;;
49758;SDS011;70329;45.524;10.194;2023-08-24T03:08:32;17.88;;;12.23;;
49758;SDS011;70329;45.524;10.194;2023-08-24T03:10:59;21.33;;;12.35;;
49758;SDS011;70329;45.524;10.194;2023-08-24T03:13:26;20.60;;;13.05;;
49758;SDS011;70329;45.524;10.194;2023-08-24T03:15:52;20.45;;;12.85;;
49758;SDS011;70329;45.524;10.194;2023-08-24T03:18:17;22.40;;;12.55;;
49758;SDS011;70329;45.524;10.194;2023-08-24T03:20:43;22.70;;;12.90;;
49758;SDS011;70329;45.524;10.194;2023-08-24T03:23:10;17.20;;;12.35;;
49758;SDS011;70329;45.524;10.194;2023-08-24T03:25:35;22.58;;;13.63;;
49758;SDS011;70329;45.524;10.194;2023-08-24T03:28:02;16.80;;;12.13;;
49758;SDS011;70329;45.524;10.194;2023-08-24T03:30:28;19.98;;;12.75;;
49758;SDS011;70329;45.524;10.194;2023-08-24T03:32:53;21.83;;;12.55;;
49758;SDS011;70329;45.524;10.194;2023-08-24T03:35:19;19.88;;;12.32;;
49758;SDS011;70329;45.524;10.194;2023-08-24T03:37:44;18.63;;;11.60;;
49758;SDS011;70329;45.524;10.194;2023-08-24T03:40:10;24.48;;;12.70;;
49758;SDS011;70329;45.524;10.194;2023-08-24T03:42:36;18.08;;;12.95;;
49758;SDS011;70329;45.524;10.194;2023-08-24T03:45:01;18.55;;;12.60;;
49758;SDS011;70329;45.524;10.194;2023-08-24T03:47:27;27.08;;;13.10;;
49758;SDS011;70329;45.524;10.194;2023-08-24T03:49:52;20.55;;;13.02;;
49758;SDS011;70329;45.524;10.194;2023-08-24T03:52:18;22.60;;;12.30;;
49758;SDS011;70329;45.524;10.194;2023-08-24T03:54:43;17.33;;;12.32;;
49758;SDS011;70329;45.524;10.194;2023-08-24T03:57:08;29.02;;;13.20;;
49758;SDS011;70329;45.524;10.194;2023-08-24T03:59:34;22.88;;;13.25;;
49758;SDS011;70329;45.524;10.194;2023-08-24T04:01:59;21.70;;;13.40;;
49758;SDS011;70329;45.524;10.194;2023-08-24T04:04:27;18.25;;;12.32;;
49758;SDS011;70329;45.524;10.194;2023-08-24T04:06:53;18.60;;;13.27;;
49758;SDS011;70329;45.524;10.194;2023-08-24T04:09:18;18.08;;;12.35;;
49758;SDS011;70329;45.524;10.194;2023-08-24T04:11:43;17.63;;;12.15;;
49758;SDS011;70329;45.524;10.194;2023-08-24T04:14:09;22.00;;;12.35;;
49758;SDS011;70329;45.524;10.194;2023-08-24T04:16:34;17.50;;;12.55;;
49758;SDS011;70329;45.524;10.194;2023-08-24T04:18:59;19.38;;;12.25;;
49758;SDS011;70329;45.524;10.194;2023-08-24T04:21:25;23.50;;;12.98;;
49758;SDS011;70329;45.524;10.194;2023-08-24T04:23:50;21.92;;;14.05;;
49758;SDS011;70329;45.524;10.194;2023-08-24T04:26:16;15.18;;;11.70;;
49758;SDS011;70329;45.524;10.194;2023-08-24T04:28:41;24.75;;;13.00;;
49758;SDS011;70329;45.524;10.194;2023-08-24T04:31:08;21.70;;;12.05;;
49758;SDS011;70329;45.524;10.194;2023-08-24T04:33:33;22.10;;;12.98;;
49758;SDS011;70329;45.524;10.194;2023-08-24T04:35:58;20.27;;;13.10;;
49758;SDS011;70329;45.524;10.194;2023-08-24T04:38:24;19.95;;;13.95;;
49758;SDS011;70329;45.524;10.194;2023-08-24T04:40:50;23.63;;;13.75;;
49758;SDS011;70329;45.524;10.194;2023-08-24T04:43:17;21.75;;;13.55;;
49758;SDS011;70329;45.524;10.194;2023-08-24T04:45:47;23.00;;;13.48;;
49758;SDS011;70329;45.524;10.194;2023-08-24T04:48:14;24.63;;;13.65;;
49758;SDS011;70329;45.524;10.194;2023-08-24T04:50:41;24.50;;;14.05;;
49758;SDS011;70329;45.524;10.194;2023-08-24T04:53:08;20.25;;;13.50;;
49758;SDS011;70329;45.524;10.194;2023-08-24T04:55:33;19.65;;;13.13;;
49758;SDS011;70329;45.524;10.194;2023-08-24T04:57:59;21.27;;;12.40;;
49758;SDS011;70329;45.524;10.194;2023-08-24T05:00:24;20.67;;;13.30;;
49758;SDS011;70329;45.524;10.194;2023-08-24T05:02:49;21.38;;;12.48;;
49758;SDS011;70329;45.524;10.194;2023-08-24T05:05:15;23.00;;;13.00;;
49758;SDS011;70329;45.524;10.194;2023-08-24T05:07:40;19.98;;;13.20;;
49758;SDS011;70329;45.524;10.194;2023-08-24T05:10:06;23.77;;;12.52;;
49758;SDS011;70329;45.524;10.194;2023-08-24T05:12:32;23.73;;;12.95;;
49758;SDS011;70329;45.524;10.194;2023-08-24T05:15:00;22.55;;;12.85;;
49758;SDS011;70329;45.524;10.194;2023-08-24T05:17:29;18.02;;;12.50;;
49758;SDS011;70329;45.524;10.194;2023-08-24T05:19:56;21.08;;;12.75;;
49758;SDS011;70329;45.524;10.194;2023-08-24T05:22:22;21.48;;;12.90;;
49758;SDS011;70329;45.524;10.194;2023-08-24T05:24:49;23.10;;;12.18;;
49758;SDS011;70329;45.524;10.194;2023-08-24T05:27:14;21.63;;;12.32;;
49758;SDS011;70329;45.524;10.194;2023-08-24T05:29:40;22.95;;;12.80;;
49758;SDS011;70329;45.524;10.194;2023-08-24T05:32:06;18.23;;;12.82;;
49758;SDS011;70329;45.524;10.194;2023-08-24T05:34:31;17.85;;;12.13;;
49758;SDS011;70329;45.524;10.194;2023-08-24T05:36:57;20.50;;;12.55;;
49758;SDS011;70329;45.524;10.194;2023-08-24T05:39:22;21.55;;;12.88;;
49758;SDS011;70329;45.524;10.194;2023-08-24T05:41:51;20.75;;;12.13;;
49758;SDS011;70329;45.524;10.194;2023-08-24T05:44:18;24.23;;;12.00;;
49758;SDS011;70329;45.524;10.194;2023-08-24T05:46:44;20.60;;;12.10;;
49758;SDS011;70329;45.524;10.194;2023-08-24T05:49:09;18.00;;;12.35;;
49758;SDS011;70329;45.524;10.194;2023-08-24T05:51:35;19.70;;;12.57;;
49758;SDS011;70329;45.524;10.194;2023-08-24T05:54:01;23.70;;;13.68;;
49758;SDS011;70329;45.524;10.194;2023-08-24T05:56:26;20.52;;;12.90;;
49758;SDS011;70329;45.524;10.194;2023-08-24T05:58:52;23.92;;;12.60;;
49758;SDS011;70329;45.524;10.194;2023-08-24T06:01:17;22.25;;;13.27;;
49758;SDS011;70329;45.524;10.194;2023-08-24T06:03:42;19.98;;;12.02;;
49758;SDS011;70329;45.524;10.194;2023-08-24T06:06:08;23.35;;;12.63;;
49758;SDS011;70329;45.524;10.194;2023-08-24T06:08:35;20.55;;;12.27;;
49758;SDS011;70329;45.524;10.194;2023-08-24T06:11:00;31.30;;;19.85;;
49758;SDS011;70329;45.524;10.194;2023-08-24T06:13:26;22.90;;;12.15;;
49758;SDS011;70329;45.524;10.194;2023-08-24T06:15:51;23.58;;;13.00;;
49758;SDS011;70329;45.524;10.194;2023-08-24T06:18:17;21.23;;;12.85;;
49758;SDS011;70329;45.524;10.194;2023-08-24T06:20:42;24.08;;;12.30;;
49758;SDS011;70329;45.524;10.194;2023-08-24T06:23:08;21.92;;;12.00;;
49758;SDS011;70329;45.524;10.194;2023-08-24T06:25:33;21.38;;;12.60;;
49758;SDS011;70329;45.524;10.194;2023-08-24T06:27:59;20.38;;;12.02;;
49758;SDS011;70329;45.524;10.194;2023-08-24T06:30:25;21.38;;;11.57;;
49758;SDS011;70329;45.524;10.194;2023-08-24T06:32:51;20.05;;;12.35;;
49758;SDS011;70329;45.524;10.194;2023-08-24T06:35:17;23.15;;;12.88;;
49758;SDS011;70329;45.524;10.194;2023-08-24T06:37:43;18.55;;;12.43;;
49758;SDS011;70329;45.524;10.194;2023-08-24T06:40:08;20.23;;;12.02;;
49758;SDS011;70329;45.524;10.194;2023-08-24T06:42:34;17.42;;;11.93;;
49758;SDS011;70329;45.524;10.194;2023-08-24T06:45:00;20.75;;;11.68;;
49758;SDS011;70329;45.524;10.194;2023-08-24T06:47:25;21.65;;;11.80;;
49758;SDS011;70329;45.524;10.194;2023-08-24T06:49:51;18.17;;;12.02;;
49758;SDS011;70329;45.524;10.194;2023-08-24T06:52:16;25.92;;;12.00;;
49758;SDS011;70329;45.524;10.194;2023-08-24T06:54:41;23.33;;;11.50;;
49758;SDS011;70329;45.524;10.194;2023-08-24T06:57:07;21.88;;;11.55;;
49758;SDS011;70329;45.524;10.194;2023-08-24T06:59:32;22.23;;;12.77;;
49758;SDS011;70329;45.524;10.194;2023-08-24T07:01:58;21.52;;;11.45;;
49758;SDS011;70329;45.524;10.194;2023-08-24T07:04:23;17.40;;;10.95;;
49758;SDS011;70329;45.524;10.194;2023-08-24T07:06:50;18.67;;;11.85;;
49758;SDS011;70329;45.524;10.194;2023-08-24T07:09:16;21.10;;;11.93;;
49758;SDS011;70329;45.524;10.194;2023-08-24T07:11:43;24.88;;;11.93;;
49758;SDS011;70329;45.524;10.194;2023-08-24T07:14:08;16.08;;;11.20;;
49758;SDS011;70329;45.524;10.194;2023-08-24T07:16:34;20.80;;;11.85;;
49758;SDS011;70329;45.524;10.194;2023-08-24T07:18:59;19.90;;;11.82;;
49758;SDS011;70329;45.524;10.194;2023-08-24T07:21:25;24.05;;;11.57;;
49758;SDS011;70329;45.524;10.194;2023-08-24T07:23:50;18.25;;;11.80;;
49758;SDS011;70329;45.524;10.194;2023-08-24T07:26:16;19.67;;;10.73;;
49758;SDS011;70329;45.524;10.194;2023-08-24T07:28:41;18.25;;;11.43;;
49758;SDS011;70329;45.524;10.194;2023-08-24T07:31:10;18.90;;;11.32;;
49758;SDS011;70329;45.524;10.194;2023-08-24T07:33:36;16.90;;;10.95;;
49758;SDS011;70329;45.524;10.194;2023-08-24T07:36:04;16.02;;;11.60;;
49758;SDS011;70329;45.524;10.194;2023-08-24T07:38:30;23.65;;;12.15;;
49758;SDS011;70329;45.524;10.194;2023-08-24T07:40:56;21.35;;;11.07;;
49758;SDS011;70329;45.524;10.194;2023-08-24T07:43:22;18.83;;;11.52;;
49758;SDS011;70329;45.524;10.194;2023-08-24T07:45:47;20.80;;;11.63;;
49758;SDS011;70329;45.524;10.194;2023-08-24T07:48:13;14.90;;;11.23;;
49758;SDS011;70329;45.524;10.194;2023-08-24T07:50:38;19.85;;;11.48;;
49758;SDS011;70329;45.524;10.194;2023-08-24T07:53:03;19.85;;;11.35;;
49758;SDS011;70329;45.524;10.194;2023-08-24T07:55:29;19.38;;;11.40;;
49758;SDS011;70329;45.524;10.194;2023-08-24T07:57:55;18.95;;;11.13;;
49758;SDS011;70329;45.524;10.194;2023-08-24T08:00:21;17.83;;;11.50;;
49758;SDS011;70329;45.524;10.194;2023-08-24T08:02:49;22.45;;;11.27;;
49758;SDS011;70329;45.524;10.194;2023-08-24T08:05:15;16.73;;;10.18;;
49758;SDS011;70329;45.524;10.194;2023-08-24T08:07:40;18.13;;;11.20;;
49758;SDS011;70329;45.524;10.194;2023-08-24T08:10:06;17.02;;;11.25;;
49758;SDS011;70329;45.524;10.194;2023-08-24T08:12:32;16.67;;;10.55;;
49758;SDS011;70329;45.524;10.194;2023-08-24T08:14:57;19.15;;;10.43;;
49758;SDS011;70329;45.524;10.194;2023-08-24T08:17:23;15.73;;;10.95;;
49758;SDS011;70329;45.524;10.194;2023-08-24T08:19:48;22.23;;;12.93;;
49758;SDS011;70329;45.524;10.194;2023-08-24T08:22:14;21.95;;;11.98;;
49758;SDS011;70329;45.524;10.194;2023-08-24T08:24:39;17.10;;;10.90;;
49758;SDS011;70329;45.524;10.194;2023-08-24T08:27:05;17.90;;;11.07;;
49758;SDS011;70329;45.524;10.194;2023-08-24T08:29:30;27.45;;;11.50;;
49758;SDS011;70329;45.524;10.194;2023-08-24T08:31:56;18.67;;;10.23;;
49758;SDS011;70329;45.524;10.194;2023-08-24T08:34:21;19.00;;;11.43;;
49758;SDS011;70329;45.524;10.194;2023-08-24T08:36:47;18.25;;;10.73;;
49758;SDS011;70329;45.524;10.194;2023-08-24T08:39:12;19.88;;;10.30;;
49758;SDS011;70329;45.524;10.194;2023-08-24T08:41:41;15.23;;;10.00;;
49758;SDS011;70329;45.524;10.194;2023-08-24T08:44:08;17.10;;;9.52;;
49758;SDS011;70329;45.524;10.194;2023-08-24T08:46:37;24.63;;;11.38;;
49758;SDS011;70329;45.524;10.194;2023-08-24T08:49:04;22.65;;;11.57;;
49758;SDS011;70329;45.524;10.194;2023-08-24T08:51:32;17.98;;;10.93;;
49758;SDS011;70329;45.524;10.194;2023-08-24T08:53:59;17.48;;;11.23;;
49758;SDS011;70329;45.524;10.194;2023-08-24T08:56:25;18.27;;;11.07;;
49758;SDS011;70329;45.524;10.194;2023-08-24T08:58:51;20.85;;;11.82;;
49758;SDS011;70329;45.524;10.194;2023-08-24T09:01:17;18.15;;;10.63;;
49758;SDS011;70329;45.524;10.194;2023-08-24T09:03:44;19.10;;;11.30;;
49758;SDS011;70329;45.524;10.194;2023-08-24T09:06:10;19.48;;;10.68;;
49758;SDS011;70329;45.524;10.194;2023-08-24T09:08:35;20.23;;;10.10;;
49758;SDS011;70329;45.524;10.194;2023-08-24T09:11:02;15.77;;;10.95;;
49758;SDS011;70329;45.524;10.194;2023-08-24T09:13:28;20.13;;;10.10;;
49758;SDS011;70329;45.524;10.194;2023-08-24T09:15:55;22.45;;;11.57;;
49758;SDS011;70329;45.524;10.194;2023-08-24T09:18:36;18.03;;;11.43;;
49758;SDS011;70329;45.524;10.194;2023-08-24T09:21:09;16.15;;;11.73;;
49758;SDS011;70329;45.524;10.194;2023-08-24T09:23:38;22.17;;;12.25;;
49758;SDS011;70329;45.524;10.194;2023-08-24T09:26:09;22.70;;;11.23;;
49758;SDS011;70329;45.524;10.194;2023-08-24T09:28:34;21.63;;;11.60;;
49758;SDS011;70329;45.524;10.194;2023-08-24T09:31:01;27.80;;;14.15;;
49758;SDS011;70329;45.524;10.194;2023-08-24T09:33:28;24.27;;;12.20;;
49758;SDS011;70329;45.524;10.194;2023-08-24T09:35:54;24.77;;;13.25;;
49758;SDS011;70329;45.524;10.194;2023-08-24T09:38:26;27.38;;;14.27;;
49758;SDS011;70329;45.524;10.194;2023-08-24T09:40:52;24.10;;;13.52;;
49758;SDS011;70329;45.524;10.194;2023-08-24T09:43:18;22.00;;;12.23;;
49758;SDS011;70329;45.524;10.194;2023-08-24T09:45:51;22.88;;;12.45;;
49758;SDS011;70329;45.524;10.194;2023-08-24T09:48:17;19.75;;;12.25;;
49758;SDS011;70329;45.524;10.194;2023-08-24T09:50:44;19.63;;;12.80;;
49758;SDS011;70329;45.524;10.194;2023-08-24T09:53:11;18.52;;;12.05;;
49758;SDS011;70329;45.524;10.194;2023-08-24T09:55:46;19.38;;;12.20;;
49758;SDS011;70329;45.524;10.194;2023-08-24T09:58:15;21.73;;;11.85;;
49758;SDS011;70329;45.524;10.194;2023-08-24T10:00:43;20.13;;;11.95;;
49758;SDS011;70329;45.524;10.194;2023-08-24T10:03:11;22.88;;;11.90;;
49758;SDS011;70329;45.524;10.194;2023-08-24T10:05:41;23.75;;;12.05;;
49758;SDS011;70329;45.524;10.194;2023-08-24T10:08:09;21.88;;;11.25;;
49758;SDS011;70329;45.524;10.194;2023-08-24T10:10:35;17.70;;;11.48;;
49758;SDS011;70329;45.524;10.194;2023-08-24T10:13:06;20.73;;;10.57;;
49758;SDS011;70329;45.524;10.194;2023-08-24T10:15:54;20.55;;;10.98;;
49758;SDS011;70329;45.524;10.194;2023-08-24T10:18:21;19.73;;;10.18;;
49758;SDS011;70329;45.524;10.194;2023-08-24T10:20:49;19.73;;;10.65;;
49758;SDS011;70329;45.524;10.194;2023-08-24T10:23:16;17.35;;;10.50;;
49758;SDS011;70329;45.524;10.194;2023-08-24T10:25:44;18.38;;;11.05;;
49758;SDS011;70329;45.524;10.194;2023-08-24T10:28:11;19.35;;;11.85;;
49758;SDS011;70329;45.524;10.194;2023-08-24T10:30:38;19.63;;;9.95;;
49758;SDS011;70329;45.524;10.194;2023-08-24T10:33:04;17.33;;;10.15;;
49758;SDS011;70329;45.524;10.194;2023-08-24T10:35:31;23.63;;;10.57;;
49758;SDS011;70329;45.524;10.194;2023-08-24T10:37:58;24.05;;;10.98;;
49758;SDS011;70329;45.524;10.194;2023-08-24T10:40:34;21.92;;;11.23;;
49758;SDS011;70329;45.524;10.194;2023-08-24T10:43:04;17.33;;;10.30;;
49758;SDS011;70329;45.524;10.194;2023-08-24T10:48:29;18.25;;;8.95;;
49758;SDS011;70329;45.524;10.194;2023-08-24T10:53:56;21.13;;;9.93;;
49758;SDS011;70329;45.524;10.194;2023-08-24T10:56:56;18.83;;;9.65;;
49758;SDS011;70329;45.524;10.194;2023-08-24T10:59:21;19.90;;;10.88;;
49758;SDS011;70329;45.524;10.194;2023-08-24T11:04:18;14.75;;;9.65;;
49758;SDS011;70329;45.524;10.194;2023-08-24T11:06:50;15.93;;;10.13;;
49758;SDS011;70329;45.524;10.194;2023-08-24T11:09:44;19.58;;;10.52;;
49758;SDS011;70329;45.524;10.194;2023-08-24T11:12:11;15.95;;;10.52;;
49758;SDS011;70329;45.524;10.194;2023-08-24T11:14:48;17.10;;;10.98;;
49758;SDS011;70329;45.524;10.194;2023-08-24T11:17:19;15.43;;;10.63;;
49758;SDS011;70329;45.524;10.194;2023-08-24T11:19:49;22.45;;;10.32;;
49758;SDS011;70329;45.524;10.194;2023-08-24T11:22:18;24.98;;;11.20;;
49758;SDS011;70329;45.524;10.194;2023-08-24T11:24:44;17.70;;;10.52;;
49758;SDS011;70329;45.524;10.194;2023-08-24T11:27:10;15.23;;;10.15;;
49758;SDS011;70329;45.524;10.194;2023-08-24T11:29:35;15.32;;;9.50;;
49758;SDS011;70329;45.524;10.194;2023-08-24T11:32:02;19.73;;;9.80;;
49758;SDS011;70329;45.524;10.194;2023-08-24T11:34:27;16.55;;;9.40;;
49758;SDS011;70329;45.524;10.194;2023-08-24T11:36:53;15.15;;;8.55;;
49758;SDS011;70329;45.524;10.194;2023-08-24T11:39:21;16.85;;;9.70;;
49758;SDS011;70329;45.524;10.194;2023-08-24T11:41:57;12.82;;;8.40;;
49758;SDS011;70329;45.524;10.194;2023-08-24T11:44:26;21.63;;;10.27;;
49758;SDS011;70329;45.524;10.194;2023-08-24T11:46:52;15.65;;;8.82;;
49758;SDS011;70329;45.524;10.194;2023-08-24T11:49:17;15.05;;;8.77;;
49758;SDS011;70329;45.524;10.194;2023-08-24T11:51:43;16.55;;;9.20;;
49758;SDS011;70329;45.524;10.194;2023-08-24T11:54:08;13.25;;;8.48;;
49758;SDS011;70329;45.524;10.194;2023-08-24T11:56:43;13.63;;;8.13;;
49758;SDS011;70329;45.524;10.194;2023-08-24T11:59:12;12.75;;;8.27;;
49758;SDS011;70329;45.524;10.194;2023-08-24T12:01:38;15.80;;;8.52;;
49758;SDS011;70329;45.524;10.194;2023-08-24T12:04:05;13.95;;;8.98;;
49758;SDS011;70329;45.524;10.194;2023-08-24T12:06:31;11.57;;;8.98;;
49758;SDS011;70329;45.524;10.194;2023-08-24T12:08:57;14.30;;;8.88;;
49758;SDS011;70329;45.524;10.194;2023-08-24T12:11:24;11.68;;;8.50;;
49758;SDS011;70329;45.524;10.194;2023-08-24T12:13:53;16.10;;;8.77;;
49758;SDS011;70329;45.524;10.194;2023-08-24T12:16:21;13.90;;;7.95;;
49758;SDS011;70329;45.524;10.194;2023-08-24T12:18:58;18.35;;;8.43;;
49758;SDS011;70329;45.524;10.194;2023-08-24T12:21:26;17.90;;;11.23;;
49758;SDS011;70329;45.524;10.194;2023-08-24T12:23:56;17.08;;;8.82;;
49758;SDS011;70329;45.524;10.194;2023-08-24T12:26:23;11.82;;;8.32;;
49758;SDS011;70329;45.524;10.194;2023-08-24T12:28:49;15.88;;;9.15;;
49758;SDS011;70329;45.524;10.194;2023-08-24T12:31:18;15.90;;;9.00;;
49758;SDS011;70329;45.524;10.194;2023-08-24T12:33:46;11.32;;;8.27;;
49758;SDS011;70329;45.524;10.194;2023-08-24T12:36:41;15.65;;;9.25;;
49758;SDS011;70329;45.524;10.194;2023-08-24T12:39:10;20.45;;;9.40;;
49758;SDS011;70329;45.524;10.194;2023-08-24T12:41:37;12.40;;;8.68;;
49758;SDS011;70329;45.524;10.194;2023-08-24T12:44:03;16.98;;;8.60;;
49758;SDS011;70329;45.524;10.194;2023-08-24T12:46:33;17.15;;;8.85;;
49758;SDS011;70329;45.524;10.194;2023-08-24T12:49:00;15.18;;;9.00;;
49758;SDS011;70329;45.524;10.194;2023-08-24T12:51:25;14.73;;;9.60;;
49758;SDS011;70329;45.524;10.194;2023-08-24T12:53:51;12.23;;;8.45;;
49758;SDS011;70329;45.524;10.194;2023-08-24T12:56:16;11.55;;;8.40;;
49758;SDS011;70329;45.524;10.194;2023-08-24T12:58:42;16.17;;;8.50;;
49758;SDS011;70329;45.524;10.194;2023-08-24T13:01:07;12.32;;;8.07;;
49758;SDS011;70329;45.524;10.194;2023-08-24T13:03:32;15.60;;;8.73;;
49758;SDS011;70329;45.524;10.194;2023-08-24T13:05:58;13.43;;;8.43;;
49758;SDS011;70329;45.524;10.194;2023-08-24T13:08:24;16.67;;;7.90;;
49758;SDS011;70329;45.524;10.194;2023-08-24T13:10:50;19.70;;;8.27;;
49758;SDS011;70329;45.524;10.194;2023-08-24T13:13:17;12.98;;;8.43;;
49758;SDS011;70329;45.524;10.194;2023-08-24T13:15:42;12.75;;;8.38;;
49758;SDS011;70329;45.524;10.194;2023-08-24T13:18:07;11.32;;;8.50;;
49758;SDS011;70329;45.524;10.194;2023-08-24T13:20:33;16.33;;;8.32;;
49758;SDS011;70329;45.524;10.194;2023-08-24T13:22:58;16.38;;;9.05;;
49758;SDS011;70329;45.524;10.194;2023-08-24T13:25:24;18.30;;;10.40;;
49758;SDS011;70329;45.524;10.194;2023-08-24T13:27:49;15.75;;;10.48;;
49758;SDS011;70329;45.524;10.194;2023-08-24T13:30:15;21.08;;;9.23;;
49758;SDS011;70329;45.524;10.194;2023-08-24T13:32:40;14.38;;;9.15;;
49758;SDS011;70329;45.524;10.194;2023-08-24T13:35:05;20.63;;;8.95;;
49758;SDS011;70329;45.524;10.194;2023-08-24T13:37:33;12.93;;;8.73;;
49758;SDS011;70329;45.524;10.194;2023-08-24T13:39:59;14.60;;;8.80;;
49758;SDS011;70329;45.524;10.194;2023-08-24T13:42:26;15.30;;;9.15;;
49758;SDS011;70329;45.524;10.194;2023-08-24T13:44:51;15.75;;;9.23;;
49758;SDS011;70329;45.524;10.194;2023-08-24T13:47:17;11.90;;;8.48;;
49758;SDS011;70329;45.524;10.194;2023-08-24T13:49:42;14.52;;;8.32;;
49758;SDS011;70329;45.524;10.194;2023-08-24T13:52:07;17.60;;;9.00;;
49758;SDS011;70329;45.524;10.194;2023-08-24T13:54:33;16.80;;;8.43;;
49758;SDS011;70329;45.524;10.194;2023-08-24T13:57:00;17.05;;;8.57;;
49758;SDS011;70329;45.524;10.194;2023-08-24T13:59:26;18.88;;;8.45;;
49758;SDS011;70329;45.524;10.194;2023-08-24T14:01:52;24.92;;;9.10;;
49758;SDS011;70329;45.524;10.194;2023-08-24T14:04:18;19.40;;;9.05;;
49758;SDS011;70329;45.524;10.194;2023-08-24T14:06:45;15.32;;;8.82;;
49758;SDS011;70329;45.524;10.194;2023-08-24T14:09:13;15.27;;;8.45;;
49758;SDS011;70329;45.524;10.194;2023-08-24T14:11:40;12.18;;;9.30;;
49758;SDS011;70329;45.524;10.194;2023-08-24T14:14:06;11.90;;;8.60;;
49758;SDS011;70329;45.524;10.194;2023-08-24T14:16:32;14.07;;;8.15;;
49758;SDS011;70329;45.524;10.194;2023-08-24T14:18:57;18.48;;;8.02;;
49758;SDS011;70329;45.524;10.194;2023-08-24T14:21:22;12.73;;;8.00;;
49758;SDS011;70329;45.524;10.194;2023-08-24T14:23:50;18.75;;;8.70;;
49758;SDS011;70329;45.524;10.194;2023-08-24T14:26:16;17.92;;;8.55;;
49758;SDS011;70329;45.524;10.194;2023-08-24T14:28:52;15.63;;;8.02;;